Time,TemperatureF,DewpointF,PressureIn,WindDirection,WindDirectionDegrees,WindSpeedMPH,WindSpeedGustMPH,Humidity,HourlyPrecipIn,Conditions,Clouds,dailyrainin,SoftwareType,DateUTC
2013-01-21 00:00:00,24.6,13.4,30.01,WNW,302,4.0,12.0,62,0.00,,---,0.08,VWS V14.01,2013-01-21 05:00:00,
2013-01-21 00:01:00,24.6,13.8,30.01,West,270,1.0,4.0,63,0.00,,---,0.00,VWS V14.01,2013-01-21 05:01:00,
2013-01-21 00:03:00,24.6,13.8,30.01,WNW,293,2.0,6.0,63,0.00,,---,0.00,VWS V14.01,2013-01-21 05:03:00,
2013-01-21 00:08:00,24.4,13.6,30.00,NW,320,1.0,6.0,63,0.00,,---,0.00,VWS V14.01,2013-01-21 05:08:00,
2013-01-21 00:13:00,24.4,13.6,30.01,NW,309,4.0,6.0,63,0.00,,---,0.00,VWS V14.01,2013-01-21 05:13:00,
2013-01-21 00:18:00,24.3,13.5,30.01,NNW,343,4.0,6.0,63,0.00,,---,0.00,VWS V14.01,2013-01-21 05:18:00,
2013-01-21 00:23:00,24.2,13.4,30.01,NW,321,2.0,6.0,63,0.00,,---,0.00,VWS V14.01,2013-01-21 05:23:00,
2013-01-21 00:28:00,24.1,13.3,30.01,North,11,0.0,7.0,63,0.00,,---,0.00,VWS V14.01,2013-01-21 05:28:00,
2013-01-21 00:30:00,22.9,11.8,30.03,NNW,341,0.0,4.0,62,0.00,,---,0.00,VWS V14.01,2013-01-21 05:30:00,
2013-01-21 00:33:00,23.9,13.1,30.01,NNW,338,4.0,5.0,63,0.00,,---,0.00,VWS V14.01,2013-01-21 05:33:00,
2013-01-21 00:38:00,23.8,13.1,30.01,NW,320,2.0,5.0,63,0.00,,---,0.00,VWS V14.01,2013-01-21 05:38:00,
2013-01-21 00:43:00,23.6,12.5,30.01,WNW,303,2.0,7.0,62,0.00,,---,0.00,VWS V14.01,2013-01-21 05:43:00,
2013-01-21 00:48:00,23.5,12.0,30.01,NW,314,2.0,7.0,61,0.00,,---,0.00,VWS V14.01,2013-01-21 05:48:00,
2013-01-21 00:53:00,23.4,11.9,30.01,West,277,3.0,7.0,61,0.00,,---,0.00,VWS V14.01,2013-01-21 05:53:00,
2013-01-21 00:58:00,23.3,12.2,30.01,NW,317,2.0,7.0,62,0.00,,---,0.00,VWS V14.01,2013-01-21 05:58:00,
2013-01-21 01:00:00,22.4,11.7,30.04,NNW,331,0.0,5.0,63,0.00,,---,0.00,VWS V14.01,2013-01-21 06:00:00,
2013-01-21 01:03:00,23.2,11.8,30.01,NW,314,1.0,3.0,61,0.00,,---,0.00,VWS V14.01,2013-01-21 06:03:00,
2013-01-21 01:08:00,23.1,12.0,30.01,West,280,0.0,4.0,62,0.00,,---,0.00,VWS V14.01,2013-01-21 06:08:00,
2013-01-21 01:13:00,23.1,11.7,30.02,NNE,22,0.0,4.0,61,0.00,,---,0.00,VWS V14.01,2013-01-21 06:13:00,
2013-01-21 01:19:00,23.0,11.6,30.02,WSW,240,0.0,4.0,61,0.00,,---,0.00,VWS V14.01,2013-01-21 06:19:00,
2013-01-21 01:24:00,23.0,11.6,30.03,NNW,341,0.0,4.0,61,0.00,,---,0.00,VWS V14.01,2013-01-21 06:24:00,
2013-01-21 01:29:00,22.9,11.8,30.03,NNW,341,0.0,4.0,62,0.00,,---,0.00,VWS V14.01,2013-01-21 06:29:00,
2013-01-21 01:30:00,22.0,11.4,30.05,NNW,331,0.0,2.0,63,0.00,,---,0.00,VWS V14.01,2013-01-21 06:30:00,
2013-01-21 01:34:00,22.7,12.0,30.03,NNW,341,0.0,2.0,63,0.00,,---,0.00,VWS V14.01,2013-01-21 06:34:00,
2013-01-21 01:39:00,22.6,11.6,30.03,NW,321,2.0,4.0,62,0.00,,---,0.00,VWS V14.01,2013-01-21 06:39:00,
2013-01-21 01:44:00,22.6,11.9,30.03,NW,307,2.0,5.0,63,0.00,,---,0.00,VWS V14.01,2013-01-21 06:44:00,
2013-01-21 01:50:00,22.5,11.8,30.03,NNW,331,0.0,5.0,63,0.00,,---,0.00,VWS V14.01,2013-01-21 06:50:00,
2013-01-21 01:55:00,22.4,11.4,30.04,NNW,331,0.0,5.0,62,0.00,,---,0.00,VWS V14.01,2013-01-21 06:55:00,
2013-01-21 02:00:00,22.4,11.4,30.04,NNW,331,0.0,5.0,62,0.00,,---,0.00,VWS V14.01,2013-01-21 07:00:00,
2013-01-21 02:05:00,22.4,11.4,30.04,NNW,331,0.0,1.0,62,0.00,,---,0.00,VWS V14.01,2013-01-21 07:05:00,
2013-01-21 02:10:00,22.3,11.6,30.04,NNW,331,0.0,1.0,63,0.00,,---,0.00,VWS V14.01,2013-01-21 07:10:00,
2013-01-21 02:15:00,22.2,11.5,30.04,NNW,331,0.0,2.0,63,0.00,,---,0.00,VWS V14.01,2013-01-21 07:15:00,
2013-01-21 02:20:00,22.2,11.5,30.04,NNW,331,0.0,2.0,63,0.00,,---,0.00,VWS V14.01,2013-01-21 07:20:00,
2013-01-21 02:25:00,22.1,11.4,30.04,NNW,331,0.0,2.0,63,0.00,,---,0.00,VWS V14.01,2013-01-21 07:25:00,
2013-01-21 02:30:00,22.0,11.4,30.05,NNW,331,0.0,0.0,63,0.00,,---,0.00,VWS V14.01,2013-01-21 07:30:00,
2013-01-21 02:35:00,21.9,11.6,30.05,NNW,331,0.0,1.0,64,0.00,,---,0.00,VWS V14.01,2013-01-21 07:35:00,
2013-01-21 02:40:00,21.8,11.5,30.05,NNW,331,0.0,2.0,64,0.00,,---,0.00,VWS V14.01,2013-01-21 07:40:00,
2013-01-21 02:46:00,21.7,11.4,30.05,NNW,331,0.0,2.0,64,0.00,,---,0.00,VWS V14.01,2013-01-21 07:46:00,
2013-01-21 02:51:00,21.8,11.5,30.05,NNW,331,0.0,2.0,64,0.00,,---,0.00,VWS V14.01,2013-01-21 07:51:00,
2013-01-21 02:56:00,21.8,11.5,30.05,NNW,331,0.0,2.0,64,0.00,,---,0.00,VWS V14.01,2013-01-21 07:56:00,
2013-01-21 03:00:00,21.1,11.2,30.04,WSW,250,0.0,2.0,65,0.00,,---,0.00,VWS V14.01,2013-01-21 08:00:00,
2013-01-21 03:01:00,21.7,11.8,30.05,NNW,331,0.0,0.0,65,0.00,,---,0.00,VWS V14.01,2013-01-21 08:01:00,
2013-01-21 03:06:00,21.5,11.6,30.05,NNW,331,0.0,1.0,65,0.00,,---,0.00,VWS V14.01,2013-01-21 08:06:00,
2013-01-21 03:11:00,21.5,11.6,30.05,NNW,331,0.0,1.0,65,0.00,,---,0.00,VWS V14.01,2013-01-21 08:11:00,
2013-01-21 03:16:00,21.4,11.8,30.05,NNW,331,0.0,1.0,66,0.00,,---,0.00,VWS V14.01,2013-01-21 08:16:00,
2013-01-21 03:21:00,21.5,11.9,30.04,NNW,331,1.0,2.0,66,0.00,,---,0.00,VWS V14.01,2013-01-21 08:21:00,
2013-01-21 03:27:00,21.5,11.6,30.04,WSW,250,0.0,3.0,65,0.00,,---,0.00,VWS V14.01,2013-01-21 08:27:00,
2013-01-21 03:30:00,20.9,10.6,30.05,West,269,0.0,3.0,64,0.00,,---,0.00,VWS V14.01,2013-01-21 08:30:00,
2013-01-21 03:32:00,21.4,11.8,30.04,WSW,250,0.0,1.0,66,0.00,,---,0.00,VWS V14.01,2013-01-21 08:32:00,
2013-01-21 03:37:00,21.3,11.4,30.05,WSW,250,0.0,2.0,65,0.00,,---,0.00,VWS V14.01,2013-01-21 08:37:00,
2013-01-21 03:42:00,21.3,11.7,30.04,WSW,250,0.0,2.0,66,0.00,,---,0.00,VWS V14.01,2013-01-21 08:42:00,
2013-01-21 03:47:00,21.2,11.6,30.04,WSW,250,0.0,2.0,66,0.00,,---,0.00,VWS V14.01,2013-01-21 08:47:00,
2013-01-21 03:52:00,21.1,11.5,30.04,WSW,250,0.0,2.0,66,0.00,,---,0.00,VWS V14.01,2013-01-21 08:52:00,
2013-01-21 03:57:00,21.1,11.2,30.04,WSW,250,0.0,2.0,65,0.00,,---,0.00,VWS V14.01,2013-01-21 08:57:00,
2013-01-21 04:00:00,20.6,10.4,30.04,West,264,0.0,3.0,64,0.00,,---,0.00,VWS V14.01,2013-01-21 09:00:00,
2013-01-21 04:03:00,21.1,11.2,30.05,WSW,250,0.0,0.0,65,0.00,,---,0.00,VWS V14.01,2013-01-21 09:03:00,
2013-01-21 04:08:00,21.0,11.1,30.05,WSW,250,0.0,0.0,65,0.00,,---,0.00,VWS V14.01,2013-01-21 09:08:00,
2013-01-21 04:13:00,20.9,11.0,30.05,WSW,250,0.0,1.0,65,0.00,,---,0.00,VWS V14.01,2013-01-21 09:13:00,
2013-01-21 04:18:00,20.9,10.6,30.05,NW,312,0.0,3.0,64,0.00,,---,0.00,VWS V14.01,2013-01-21 09:18:00,
2013-01-21 04:23:00,20.8,10.9,30.05,NW,312,2.0,3.0,65,0.00,,---,0.00,VWS V14.01,2013-01-21 09:23:00,
2013-01-21 04:28:00,20.8,10.6,30.05,West,269,0.0,3.0,64,0.00,,---,0.00,VWS V14.01,2013-01-21 09:28:00,
2013-01-21 04:30:00,20.4,10.5,30.04,WSW,253,0.0,3.0,65,0.00,,---,0.00,VWS V14.01,2013-01-21 09:30:00,
2013-01-21 04:33:00,20.8,10.6,30.05,West,269,0.0,2.0,64,0.00,,---,0.00,VWS V14.01,2013-01-21 09:33:00,
2013-01-21 04:38:00,20.8,10.6,30.05,West,269,0.0,3.0,64,0.00,,---,0.00,VWS V14.01,2013-01-21 09:38:00,
2013-01-21 04:43:00,20.7,10.8,30.05,NW,314,1.0,3.0,65,0.00,,---,0.00,VWS V14.01,2013-01-21 09:43:00,
2013-01-21 04:48:00,20.6,10.4,30.04,NW,314,0.0,3.0,64,0.00,,---,0.00,VWS V14.01,2013-01-21 09:48:00,
2013-01-21 04:53:00,20.6,10.4,30.04,NW,314,0.0,3.0,64,0.00,,---,0.00,VWS V14.01,2013-01-21 09:53:00,
2013-01-21 04:58:00,20.6,10.4,30.04,West,264,0.0,3.0,64,0.00,,---,0.00,VWS V14.01,2013-01-21 09:58:00,
2013-01-21 05:00:00,20.5,11.0,30.04,WSW,253,0.0,2.0,66,0.00,,---,0.00,VWS V14.01,2013-01-21 10:00:00,
2013-01-21 05:03:00,20.6,10.4,30.04,West,264,0.0,2.0,64,0.00,,---,0.00,VWS V14.01,2013-01-21 10:03:00,
2013-01-21 05:09:00,20.5,10.6,30.05,West,264,0.0,2.0,65,0.00,,---,0.00,VWS V14.01,2013-01-21 10:09:00,
2013-01-21 05:14:00,20.4,10.5,30.05,West,264,0.0,2.0,65,0.00,,---,0.00,VWS V14.01,2013-01-21 10:14:00,
2013-01-21 05:19:00,20.4,10.5,30.05,West,264,1.0,2.0,65,0.00,,---,0.00,VWS V14.01,2013-01-21 10:19:00,
2013-01-21 05:24:00,20.4,10.5,30.05,NNW,327,0.0,2.0,65,0.00,,---,0.00,VWS V14.01,2013-01-21 10:24:00,
2013-01-21 05:29:00,20.4,10.9,30.04,WSW,253,1.0,3.0,66,0.00,,---,0.00,VWS V14.01,2013-01-21 10:29:00,
2013-01-21 05:30:00,20.3,10.8,30.05,NW,319,0.0,2.0,66,0.00,,---,0.00,VWS V14.01,2013-01-21 10:30:00,
2013-01-21 05:34:00,20.4,10.5,30.04,WSW,253,0.0,1.0,65,0.00,,---,0.00,VWS V14.01,2013-01-21 10:34:00,
2013-01-21 05:39:00,20.5,11.0,30.04,WSW,253,0.0,2.0,66,0.00,,---,0.00,VWS V14.01,2013-01-21 10:39:00,
2013-01-21 05:44:00,20.5,11.0,30.04,WSW,253,0.0,2.0,66,0.00,,---,0.00,VWS V14.01,2013-01-21 10:44:00,
2013-01-21 05:49:00,20.5,11.0,30.04,WSW,253,0.0,2.0,66,0.00,,---,0.00,VWS V14.01,2013-01-21 10:49:00,
2013-01-21 05:54:00,20.6,11.1,30.04,WSW,253,0.0,2.0,66,0.00,,---,0.00,VWS V14.01,2013-01-21 10:54:00,
2013-01-21 05:59:00,20.5,11.0,30.04,WSW,253,0.0,2.0,66,0.00,,---,0.00,VWS V14.01,2013-01-21 10:59:00,
2013-01-21 06:00:00,20.3,11.4,30.05,NW,319,0.0,2.0,68,0.00,,---,0.00,VWS V14.01,2013-01-21 11:00:00,
2013-01-21 06:05:00,20.5,11.0,30.05,WSW,253,0.0,2.0,66,0.00,,---,0.00,VWS V14.01,2013-01-21 11:05:00,
2013-01-21 06:10:00,20.4,11.2,30.05,NW,319,0.0,2.0,67,0.00,,---,0.00,VWS V14.01,2013-01-21 11:10:00,
2013-01-21 06:15:00,20.3,11.1,30.05,NW,319,0.0,2.0,67,0.00,,---,0.00,VWS V14.01,2013-01-21 11:15:00,
2013-01-21 06:20:00,20.3,11.1,30.05,NW,319,0.0,2.0,67,0.00,,---,0.00,VWS V14.01,2013-01-21 11:20:00,
2013-01-21 06:25:00,20.3,11.4,30.05,NW,319,0.0,2.0,68,0.00,,---,0.00,VWS V14.01,2013-01-21 11:25:00,
2013-01-21 06:30:00,20.3,10.8,30.05,NW,319,0.0,2.0,66,0.00,,---,0.00,VWS V14.01,2013-01-21 11:30:00,
2013-01-21 06:35:00,20.3,11.1,30.05,NW,319,0.0,2.0,67,0.00,,---,0.00,VWS V14.01,2013-01-21 11:35:00,
2013-01-21 06:40:00,20.4,11.2,30.05,NW,319,0.0,2.0,67,0.00,,---,0.00,VWS V14.01,2013-01-21 11:40:00,
2013-01-21 06:45:00,20.3,11.4,30.05,NW,319,0.0,2.0,68,0.00,,---,0.00,VWS V14.01,2013-01-21 11:45:00,
2013-01-21 06:50:00,20.2,11.7,30.06,NW,319,0.0,2.0,69,0.00,,---,0.00,VWS V14.01,2013-01-21 11:50:00,
2013-01-21 06:55:00,20.2,11.0,30.05,NW,319,0.0,2.0,67,0.00,,---,0.00,VWS V14.01,2013-01-21 11:55:00,
2013-01-21 07:00:00,20.3,11.4,30.06,NW,319,0.0,0.0,68,0.00,,---,0.00,VWS V14.01,2013-01-21 12:00:00,
2013-01-21 07:05:00,20.4,11.2,30.06,NW,319,0.0,0.0,67,0.00,,---,0.00,VWS V14.01,2013-01-21 12:05:00,
2013-01-21 07:10:00,20.4,11.5,30.06,NW,319,0.0,0.0,68,0.00,,---,0.00,VWS V14.01,2013-01-21 12:10:00,
2013-01-21 07:16:00,20.4,11.2,30.05,NW,319,0.0,0.0,67,0.00,,---,0.00,VWS V14.01,2013-01-21 12:16:00,
2013-01-21 07:21:00,20.5,11.6,30.05,NW,319,0.0,0.0,68,0.00,,---,0.00,VWS V14.01,2013-01-21 12:21:00,
2013-01-21 07:26:00,20.6,11.7,30.05,NW,319,0.0,1.0,68,0.00,,---,0.00,VWS V14.01,2013-01-21 12:26:00,
2013-01-21 07:31:00,20.6,11.7,30.05,NW,319,0.0,0.0,68,0.00,,---,0.00,VWS V14.01,2013-01-21 12:31:00,
2013-01-21 07:36:00,20.6,11.7,30.05,NW,319,0.0,0.0,68,0.00,,---,0.00,VWS V14.01,2013-01-21 12:36:00,
2013-01-21 07:41:00,20.6,11.7,30.05,NW,319,0.0,0.0,68,0.00,,---,0.00,VWS V14.01,2013-01-21 12:41:00,
2013-01-21 07:46:00,20.7,11.8,30.05,NW,319,0.0,0.0,68,0.00,,---,0.00,VWS V14.01,2013-01-21 12:46:00,
2013-01-21 07:51:00,20.7,11.8,30.05,NW,319,0.0,0.0,68,0.00,,---,0.00,VWS V14.01,2013-01-21 12:51:00,
2013-01-21 07:56:00,20.9,12.0,30.05,NW,319,0.0,0.0,68,0.00,,---,0.00,VWS V14.01,2013-01-21 12:56:00,
2013-01-21 08:00:00,22.0,12.4,30.06,NW,319,0.0,2.0,66,0.00,,---,0.00,VWS V14.01,2013-01-21 13:00:00,
2013-01-21 08:01:00,20.9,11.7,30.06,NW,319,1.0,1.0,67,0.00,,---,0.00,VWS V14.01,2013-01-21 13:01:00,
2013-01-21 08:06:00,21.0,11.8,30.06,NW,319,0.0,1.0,67,0.00,,---,0.00,VWS V14.01,2013-01-21 13:06:00,
2013-01-21 08:12:00,21.1,11.9,30.06,NW,319,0.0,1.0,67,0.00,,---,0.00,VWS V14.01,2013-01-21 13:12:00,
2013-01-21 08:17:00,21.3,12.1,30.06,NW,319,0.0,1.0,67,0.00,,---,0.00,VWS V14.01,2013-01-21 13:17:00,
2013-01-21 08:22:00,21.3,12.1,30.06,NW,319,0.0,1.0,67,0.00,,---,0.00,VWS V14.01,2013-01-21 13:22:00,
2013-01-21 08:27:00,21.5,12.3,30.06,NW,319,0.0,1.0,67,0.00,,---,0.00,VWS V14.01,2013-01-21 13:27:00,
2013-01-21 08:30:00,22.3,12.7,30.07,NW,319,0.0,1.0,66,0.00,,---,0.00,VWS V14.01,2013-01-21 13:30:00,
2013-01-21 08:32:00,21.6,12.0,30.06,NW,319,0.0,0.0,66,0.00,,---,0.00,VWS V14.01,2013-01-21 13:32:00,
2013-01-21 08:37:00,21.6,11.7,30.06,NW,319,0.0,2.0,65,0.00,,---,0.00,VWS V14.01,2013-01-21 13:37:00,
2013-01-21 08:42:00,21.8,12.2,30.06,NW,319,0.0,2.0,66,0.00,,---,0.00,VWS V14.01,2013-01-21 13:42:00,
2013-01-21 08:47:00,21.9,12.3,30.06,NW,319,2.0,2.0,66,0.00,,---,0.00,VWS V14.01,2013-01-21 13:47:00,
2013-01-21 08:52:00,21.9,12.3,30.06,NW,319,0.0,2.0,66,0.00,,---,0.00,VWS V14.01,2013-01-21 13:52:00,
2013-01-21 08:58:00,22.0,12.4,30.06,NW,319,0.0,2.0,66,0.00,,---,0.00,VWS V14.01,2013-01-21 13:58:00,
2013-01-21 09:00:00,22.4,13.1,30.06,SW,216,0.0,2.0,67,0.00,,---,0.00,VWS V14.01,2013-01-21 14:00:00,
2013-01-21 09:03:00,22.0,12.4,30.06,NW,319,0.0,0.0,66,0.00,,---,0.00,VWS V14.01,2013-01-21 14:03:00,
2013-01-21 09:08:00,22.1,12.8,30.06,NW,319,1.0,1.0,67,0.00,,---,0.00,VWS V14.01,2013-01-21 14:08:00,
2013-01-21 09:13:00,22.1,12.5,30.07,NW,319,0.0,1.0,66,0.00,,---,0.00,VWS V14.01,2013-01-21 14:13:00,
2013-01-21 09:18:00,22.2,12.6,30.07,NW,319,0.0,1.0,66,0.00,,---,0.00,VWS V14.01,2013-01-21 14:18:00,
2013-01-21 09:23:00,22.2,12.9,30.07,NW,319,0.0,1.0,67,0.00,,---,0.00,VWS V14.01,2013-01-21 14:23:00,
2013-01-21 09:28:00,22.2,12.9,30.07,NW,319,0.0,1.0,67,0.00,,---,0.00,VWS V14.01,2013-01-21 14:28:00,
2013-01-21 09:30:00,23.6,14.3,30.05,SW,216,0.0,3.0,67,0.00,,---,0.00,VWS V14.01,2013-01-21 14:30:00,
2013-01-21 09:33:00,22.3,13.0,30.07,NW,319,0.0,0.0,67,0.00,,---,0.00,VWS V14.01,2013-01-21 14:33:00,
2013-01-21 09:38:00,22.4,12.8,30.07,SW,216,1.0,1.0,66,0.00,,---,0.00,VWS V14.01,2013-01-21 14:38:00,
2013-01-21 09:43:00,22.4,12.8,30.07,SW,216,0.0,1.0,66,0.00,,---,0.00,VWS V14.01,2013-01-21 14:43:00,
2013-01-21 09:48:00,22.4,12.8,30.07,SW,216,0.0,2.0,66,0.00,,---,0.00,VWS V14.01,2013-01-21 14:48:00,
2013-01-21 09:54:00,22.4,13.1,30.06,SW,216,0.0,2.0,67,0.00,,---,0.00,VWS V14.01,2013-01-21 14:54:00,
2013-01-21 09:59:00,22.4,13.1,30.06,SW,216,0.0,2.0,67,0.00,,---,0.00,VWS V14.01,2013-01-21 14:59:00,
2013-01-21 10:00:00,24.0,13.6,30.03,SW,216,0.0,2.0,64,0.00,,---,0.00,VWS V14.01,2013-01-21 15:00:00,
2013-01-21 10:04:00,22.5,13.2,30.06,SW,216,0.0,1.0,67,0.00,,---,0.00,VWS V14.01,2013-01-21 15:04:00,
2013-01-21 10:09:00,22.7,13.1,30.06,SW,216,0.0,3.0,66,0.00,,---,0.00,VWS V14.01,2013-01-21 15:09:00,
2013-01-21 10:14:00,22.9,13.3,30.06,SW,216,0.0,3.0,66,0.00,,---,0.00,VWS V14.01,2013-01-21 15:14:00,
2013-01-21 10:19:00,23.0,13.4,30.05,SW,216,0.0,3.0,66,0.00,,---,0.00,VWS V14.01,2013-01-21 15:19:00,
2013-01-21 10:24:00,23.3,14.0,30.05,SW,216,0.0,3.0,67,0.00,,---,0.00,VWS V14.01,2013-01-21 15:24:00,
2013-01-21 10:29:00,23.6,13.9,30.05,SW,216,0.0,3.0,66,0.00,,---,0.00,VWS V14.01,2013-01-21 15:29:00,
2013-01-21 10:30:00,24.8,13.3,30.01,South,183,0.0,3.0,61,0.00,,---,0.00,VWS V14.01,2013-01-21 15:30:00,
2013-01-21 10:34:00,23.9,13.5,30.05,SW,216,0.0,1.0,64,0.00,,---,0.00,VWS V14.01,2013-01-21 15:34:00,
2013-01-21 10:39:00,24.0,14.0,30.04,SW,216,0.0,1.0,65,0.00,,---,0.00,VWS V14.01,2013-01-21 15:39:00,
2013-01-21 10:44:00,23.9,13.1,30.04,SW,216,0.0,2.0,63,0.00,,---,0.00,VWS V14.01,2013-01-21 15:44:00,
2013-01-21 10:49:00,23.8,13.1,30.04,SW,216,0.0,2.0,63,0.00,,---,0.00,VWS V14.01,2013-01-21 15:49:00,
2013-01-21 10:55:00,23.8,13.4,30.03,SW,216,0.0,2.0,64,0.00,,---,0.00,VWS V14.01,2013-01-21 15:55:00,
2013-01-21 11:00:00,24.0,13.6,30.03,SW,216,1.0,2.0,64,0.00,,---,0.00,VWS V14.01,2013-01-21 16:00:00,
2013-01-21 11:05:00,24.3,13.5,30.02,SW,216,0.0,1.0,63,0.00,,---,0.00,VWS V14.01,2013-01-21 16:05:00,
2013-01-21 11:10:00,24.5,13.7,30.02,SW,216,0.0,1.0,63,0.00,,---,0.00,VWS V14.01,2013-01-21 16:10:00,
2013-01-21 11:15:00,24.5,13.4,30.02,SW,215,0.0,3.0,62,0.00,,---,0.00,VWS V14.01,2013-01-21 16:15:00,
2013-01-21 11:20:00,24.6,13.1,30.01,SW,215,0.0,3.0,61,0.00,,---,0.00,VWS V14.01,2013-01-21 16:20:00,
2013-01-21 11:25:00,24.8,13.6,30.00,South,183,0.0,3.0,62,0.00,,---,0.00,VWS V14.01,2013-01-21 16:25:00,
2013-01-21 11:30:00,24.8,13.3,30.01,South,183,0.0,3.0,61,0.00,,---,0.00,VWS V14.01,2013-01-21 16:30:00,
2013-01-21 11:35:00,25.0,13.5,30.00,SSW,192,0.0,2.0,61,0.00,,---,0.00,VWS V14.01,2013-01-21 16:35:00,
2013-01-21 11:40:00,25.2,13.6,30.00,SW,236,0.0,3.0,61,0.00,,---,0.00,VWS V14.01,2013-01-21 16:40:00,
2013-01-21 11:45:00,25.3,13.8,30.00,SW,221,0.0,3.0,61,0.00,,---,0.00,VWS V14.01,2013-01-21 16:45:00,
2013-01-21 11:51:00,25.2,13.3,30.00,SW,221,0.0,3.0,60,0.00,,---,0.00,VWS V14.01,2013-01-21 16:51:00,
2013-01-21 11:56:00,25.1,13.2,29.99,South,179,0.0,3.0,60,0.00,,---,0.00,VWS V14.01,2013-01-21 16:56:00,
2013-01-21 12:00:00,25.4,14.2,29.95,WNW,290,0.0,3.0,62,0.00,,---,0.00,VWS V14.01,2013-01-21 17:00:00,
2013-01-21 12:01:00,24.9,13.0,29.99,SW,215,0.0,0.0,60,0.00,,---,0.00,VWS V14.01,2013-01-21 17:01:00,
2013-01-21 12:06:00,24.9,13.4,29.98,SW,215,2.0,2.0,61,0.00,,---,0.00,VWS V14.01,2013-01-21 17:06:00,
2013-01-21 12:11:00,25.0,13.5,29.98,SW,215,0.0,2.0,61,0.00,,---,0.00,VWS V14.01,2013-01-21 17:11:00,
2013-01-21 12:16:00,25.1,13.6,29.98,South,181,1.0,3.0,61,0.00,,---,0.00,VWS V14.01,2013-01-21 17:16:00,
2013-01-21 12:21:00,25.1,13.6,29.97,South,180,0.0,3.0,61,0.00,,---,0.00,VWS V14.01,2013-01-21 17:21:00,
2013-01-21 12:26:00,25.2,14.0,29.97,SSW,200,0.0,4.0,62,0.00,,---,0.00,VWS V14.01,2013-01-21 17:26:00,
2013-01-21 12:30:00,25.7,14.9,29.94,South,183,0.0,3.0,63,0.00,,---,0.00,VWS V14.01,2013-01-21 17:30:00,
2013-01-21 12:31:00,25.2,13.6,29.97,SSW,199,1.0,3.0,61,0.00,,---,0.00,VWS V14.01,2013-01-21 17:31:00,
2013-01-21 12:36:00,25.1,13.9,29.96,SSW,198,0.0,3.0,62,0.00,,---,0.00,VWS V14.01,2013-01-21 17:36:00,
2013-01-21 12:41:00,25.2,14.0,29.96,SSW,197,0.0,3.0,62,0.00,,---,0.00,VWS V14.01,2013-01-21 17:41:00,
2013-01-21 12:46:00,25.2,13.6,29.96,South,182,0.0,3.0,61,0.00,,---,0.00,VWS V14.01,2013-01-21 17:46:00,
2013-01-21 12:51:00,25.4,13.8,29.96,South,182,1.0,3.0,61,0.00,,---,0.00,VWS V14.01,2013-01-21 17:51:00,
2013-01-21 12:57:00,25.4,13.8,29.96,SSW,192,0.0,3.0,61,0.00,,---,0.00,VWS V14.01,2013-01-21 17:57:00,
2013-01-21 13:00:00,25.3,15.6,29.93,WSW,250,0.0,4.0,66,0.00,,---,0.00,VWS V14.01,2013-01-21 18:00:00,
2013-01-21 13:02:00,25.4,14.2,29.95,WNW,290,0.0,1.0,62,0.00,,---,0.00,VWS V14.01,2013-01-21 18:02:00,
2013-01-21 13:07:00,25.4,14.2,29.95,SSW,200,0.0,3.0,62,0.00,,---,0.00,VWS V14.01,2013-01-21 18:07:00,
2013-01-21 13:12:00,25.4,14.2,29.95,SSW,192,0.0,3.0,62,0.00,,---,0.00,VWS V14.01,2013-01-21 18:12:00,
2013-01-21 13:17:00,25.5,14.7,29.95,WSW,252,0.0,3.0,63,0.00,,---,0.00,VWS V14.01,2013-01-21 18:17:00,
2013-01-21 13:22:00,25.5,15.0,29.94,WSW,252,0.0,3.0,64,0.00,,---,0.00,VWS V14.01,2013-01-21 18:22:00,
2013-01-21 13:27:00,25.7,15.2,29.94,South,179,0.0,3.0,64,0.00,,---,0.00,VWS V14.01,2013-01-21 18:27:00,
2013-01-21 13:30:00,25.2,16.1,29.92,SSW,196,1.0,4.0,68,0.00,,---,0.00,VWS V14.01,2013-01-21 18:30:00,
2013-01-21 13:32:00,25.6,14.8,29.94,South,182,1.0,2.0,63,0.00,,---,0.00,VWS V14.01,2013-01-21 18:32:00,
2013-01-21 13:38:00,25.6,15.1,29.94,SSW,204,0.0,2.0,64,0.00,,---,0.00,VWS V14.01,2013-01-21 18:38:00,
2013-01-21 13:43:00,25.6,15.1,29.93,SSW,213,3.0,3.0,64,0.00,,---,0.00,VWS V14.01,2013-01-21 18:43:00,
2013-01-21 13:48:00,25.5,16.1,29.94,SW,232,0.0,4.0,67,0.00,,---,0.00,VWS V14.01,2013-01-21 18:48:00,
2013-01-21 13:53:00,25.5,16.1,29.93,NW,306,0.0,4.0,67,0.00,,---,0.00,VWS V14.01,2013-01-21 18:53:00,
2013-01-21 13:58:00,25.4,15.6,29.93,SSW,205,1.0,4.0,66,0.00,,---,0.00,VWS V14.01,2013-01-21 18:58:00,
2013-01-21 14:00:00,25.5,15.7,29.91,SW,227,0.0,2.0,66,0.00,,---,0.00,VWS V14.01,2013-01-21 19:00:00,
2013-01-21 14:03:00,25.2,15.8,29.93,SSW,198,0.0,4.0,67,0.00,,---,0.00,VWS V14.01,2013-01-21 19:03:00,
2013-01-21 14:08:00,25.1,15.7,29.93,SSW,194,0.0,4.0,67,0.00,,---,0.00,VWS V14.01,2013-01-21 19:08:00,
2013-01-21 14:13:00,25.2,15.8,29.93,South,180,0.0,4.0,67,0.00,,---,0.00,VWS V14.01,2013-01-21 19:13:00,
2013-01-21 14:18:00,25.3,16.2,29.93,SSW,207,2.0,4.0,68,0.00,,---,0.00,VWS V14.01,2013-01-21 19:18:00,
2013-01-21 14:24:00,25.3,16.2,29.92,SSW,197,0.0,4.0,68,0.00,,---,0.00,VWS V14.01,2013-01-21 19:24:00,
2013-01-21 14:29:00,25.2,16.1,29.92,SSW,197,2.0,4.0,68,0.00,,---,0.00,VWS V14.01,2013-01-21 19:29:00,
2013-01-21 14:30:00,25.4,16.0,29.88,South,181,0.0,3.0,67,0.00,,---,0.00,VWS V14.01,2013-01-21 19:30:00,
2013-01-21 14:34:00,25.2,15.8,29.92,SSW,193,2.0,2.0,67,0.00,,---,0.00,VWS V14.01,2013-01-21 19:34:00,
2013-01-21 14:39:00,25.3,15.9,29.92,South,187,0.0,2.0,67,0.00,,---,0.00,VWS V14.01,2013-01-21 19:39:00,
2013-01-21 14:44:00,25.4,16.0,29.92,South,187,0.0,2.0,67,0.00,,---,0.00,VWS V14.01,2013-01-21 19:44:00,
2013-01-21 14:49:00,25.5,16.1,29.91,SW,227,0.0,2.0,67,0.00,,---,0.00,VWS V14.01,2013-01-21 19:49:00,
2013-01-21 14:54:00,25.6,16.2,29.90,SW,227,0.0,2.0,67,0.00,,---,0.00,VWS V14.01,2013-01-21 19:54:00,
2013-01-21 14:59:00,25.6,16.2,29.91,SW,227,1.0,2.0,67,0.00,,---,0.00,VWS V14.01,2013-01-21 19:59:00,
2013-01-21 15:00:00,25.9,15.8,29.87,South,184,0.0,2.0,65,0.00,,---,0.00,VWS V14.01,2013-01-21 20:00:00,
2013-01-21 15:05:00,25.5,15.7,29.90,SW,227,1.0,2.0,66,0.00,,---,0.00,VWS V14.01,2013-01-21 20:05:00,
2013-01-21 15:09:00,25.4,16.0,29.90,South,190,0.0,2.0,67,0.00,,---,0.00,VWS V14.01,2013-01-21 20:09:00,
2013-01-21 15:14:00,25.4,16.3,29.89,South,190,0.0,2.0,68,0.00,,---,0.00,VWS V14.01,2013-01-21 20:14:00,
2013-01-21 15:20:00,25.3,16.2,29.89,South,189,0.0,3.0,68,0.00,,---,0.00,VWS V14.01,2013-01-21 20:20:00,
2013-01-21 15:25:00,25.3,15.9,29.89,South,181,1.0,3.0,67,0.00,,---,0.00,VWS V14.01,2013-01-21 20:25:00,
2013-01-21 15:30:00,25.4,16.0,29.88,South,181,0.0,3.0,67,0.00,,---,0.00,VWS V14.01,2013-01-21 20:30:00,
2013-01-21 15:35:00,25.4,15.6,29.88,South,184,0.0,2.0,66,0.00,,---,0.00,VWS V14.01,2013-01-21 20:35:00,
2013-01-21 15:40:00,25.5,16.1,29.87,South,184,0.0,2.0,67,0.00,,---,0.00,VWS V14.01,2013-01-21 20:40:00,
2013-01-21 15:45:00,25.7,16.3,29.87,South,184,0.0,2.0,67,0.00,,---,0.00,VWS V14.01,2013-01-21 20:45:00,
2013-01-21 15:50:00,25.8,16.0,29.87,South,184,0.0,2.0,66,0.00,,---,0.00,VWS V14.01,2013-01-21 20:50:00,
2013-01-21 15:55:00,25.9,15.8,29.87,South,184,0.0,2.0,65,0.00,,---,0.00,VWS V14.01,2013-01-21 20:55:00,
2013-01-21 16:00:00,25.9,15.8,29.87,South,184,0.0,2.0,65,0.00,,---,0.00,VWS V14.01,2013-01-21 21:00:00,
2013-01-21 16:05:00,26.0,15.9,29.87,South,184,0.0,0.0,65,0.00,,---,0.00,VWS V14.01,2013-01-21 21:05:00,
2013-01-21 16:10:00,26.0,15.9,29.87,South,184,0.0,0.0,65,0.00,,---,0.00,VWS V14.01,2013-01-21 21:10:00,
2013-01-21 16:15:00,25.9,15.8,29.87,South,184,0.0,0.0,65,0.00,,---,0.00,VWS V14.01,2013-01-21 21:15:00,
2013-01-21 16:20:00,25.9,15.8,29.87,South,184,0.0,0.0,65,0.00,,---,0.00,VWS V14.01,2013-01-21 21:20:00,
2013-01-21 16:25:00,25.9,15.4,29.87,South,184,0.0,0.0,64,0.00,,---,0.00,VWS V14.01,2013-01-21 21:25:00,
2013-01-21 16:30:00,25.9,15.8,29.88,South,184,0.0,0.0,65,0.00,,---,0.00,VWS V14.01,2013-01-21 21:30:00,
2013-01-21 16:35:00,25.9,15.8,29.87,South,184,0.0,0.0,65,0.00,,---,0.00,VWS V14.01,2013-01-21 21:35:00,
2013-01-21 16:40:00,25.8,15.3,29.88,South,184,0.0,0.0,64,0.00,,---,0.00,VWS V14.01,2013-01-21 21:40:00,
2013-01-21 16:45:00,25.7,15.6,29.88,South,184,0.0,0.0,65,0.00,,---,0.00,VWS V14.01,2013-01-21 21:45:00,
2013-01-21 16:50:00,25.7,15.6,29.88,South,184,0.0,0.0,65,0.00,,---,0.00,VWS V14.01,2013-01-21 21:50:00,
2013-01-21 16:56:00,25.7,15.6,29.88,South,184,0.0,0.0,65,0.00,,---,0.00,VWS V14.01,2013-01-21 21:56:00,
2013-01-21 17:00:00,25.6,16.2,29.87,South,184,0.0,0.0,67,0.00,,---,0.00,VWS V14.01,2013-01-21 22:00:00,
2013-01-21 17:01:00,25.7,15.2,29.88,South,184,0.0,0.0,64,0.00,,---,0.00,VWS V14.01,2013-01-21 22:01:00,
2013-01-21 17:06:00,25.7,15.9,29.88,South,184,0.0,0.0,66,0.00,,---,0.00,VWS V14.01,2013-01-21 22:06:00,
2013-01-21 17:11:00,25.7,15.9,29.88,South,184,0.0,0.0,66,0.00,,---,0.00,VWS V14.01,2013-01-21 22:11:00,
2013-01-21 17:16:00,25.7,15.9,29.88,South,184,0.0,0.0,66,0.00,,---,0.00,VWS V14.01,2013-01-21 22:16:00,
2013-01-21 17:21:00,25.7,15.9,29.88,South,184,0.0,0.0,66,0.00,,---,0.00,VWS V14.01,2013-01-21 22:21:00,
2013-01-21 17:26:00,25.7,15.6,29.88,South,184,0.0,0.0,65,0.00,,---,0.00,VWS V14.01,2013-01-21 22:26:00,
2013-01-21 17:30:00,25.2,16.5,29.87,South,184,0.0,0.0,69,0.00,,---,0.00,VWS V14.01,2013-01-21 22:30:00,
2013-01-21 17:31:00,25.7,15.9,29.88,South,184,0.0,0.0,66,0.00,,---,0.00,VWS V14.01,2013-01-21 22:31:00,
2013-01-21 17:36:00,25.7,16.3,29.87,South,184,0.0,0.0,67,0.00,,---,0.00,VWS V14.01,2013-01-21 22:36:00,
2013-01-21 17:41:00,25.6,15.5,29.87,South,184,0.0,0.0,65,0.00,,---,0.00,VWS V14.01,2013-01-21 22:41:00,
2013-01-21 17:46:00,25.6,15.5,29.87,South,184,0.0,0.0,65,0.00,,---,0.00,VWS V14.01,2013-01-21 22:46:00,
2013-01-21 17:52:00,25.6,15.8,29.87,South,184,0.0,0.0,66,0.00,,---,0.00,VWS V14.01,2013-01-21 22:52:00,
2013-01-21 17:57:00,25.6,16.2,29.87,South,184,0.0,0.0,67,0.00,,---,0.00,VWS V14.01,2013-01-21 22:57:00,
2013-01-21 18:00:00,24.9,16.5,29.88,WNW,282,0.0,1.0,70,0.00,,---,0.00,VWS V14.01,2013-01-21 23:00:00,
2013-01-21 18:02:00,25.6,16.5,29.86,South,184,0.0,0.0,68,0.00,,---,0.00,VWS V14.01,2013-01-21 23:02:00,
2013-01-21 18:07:00,25.6,16.2,29.87,South,184,0.0,0.0,67,0.00,,---,0.00,VWS V14.01,2013-01-21 23:07:00,
2013-01-21 18:12:00,25.6,16.5,29.87,South,184,0.0,0.0,68,0.00,,---,0.00,VWS V14.01,2013-01-21 23:12:00,
2013-01-21 18:17:00,25.5,16.8,29.87,South,184,0.0,0.0,69,0.00,,---,0.00,VWS V14.01,2013-01-21 23:17:00,
2013-01-21 18:22:00,25.4,16.7,29.88,South,184,0.0,0.0,69,0.00,,---,0.00,VWS V14.01,2013-01-21 23:22:00,
2013-01-21 18:27:00,25.3,16.2,29.87,South,184,0.0,0.0,68,0.00,,---,0.00,VWS V14.01,2013-01-21 23:27:00,
2013-01-21 18:30:00,24.8,16.4,29.88,NNW,334,3.0,3.0,70,0.00,,---,0.00,VWS V14.01,2013-01-21 23:30:00,
2013-01-21 18:32:00,25.2,16.5,29.87,South,184,0.0,0.0,69,0.00,,---,0.00,VWS V14.01,2013-01-21 23:32:00,
2013-01-21 18:37:00,25.1,16.7,29.87,South,184,0.0,0.0,70,0.00,,---,0.00,VWS V14.01,2013-01-21 23:37:00,
2013-01-21 18:43:00,25.0,16.3,29.87,South,184,0.0,0.0,69,0.00,,---,0.00,VWS V14.01,2013-01-21 23:43:00,
2013-01-21 18:47:00,25.0,16.9,29.87,South,184,0.0,0.0,71,0.00,,---,0.00,VWS V14.01,2013-01-21 23:47:00,
2013-01-21 18:53:00,24.9,16.8,29.87,South,184,0.0,1.0,71,0.00,,---,0.00,VWS V14.01,2013-01-21 23:53:00,
2013-01-21 18:58:00,24.9,17.2,29.88,WNW,282,1.0,1.0,72,0.00,,---,0.00,VWS V14.01,2013-01-21 23:58:00,
2013-01-21 19:00:00,24.4,17.6,29.88,NNE,22,0.0,5.0,75,0.00,,---,0.00,VWS V14.01,2013-01-22 00:00:00,
2013-01-21 19:03:00,24.9,16.5,29.87,WNW,282,0.0,1.0,70,0.00,,---,0.00,VWS V14.01,2013-01-22 00:03:00,
2013-01-21 19:08:00,24.9,16.2,29.87,WNW,282,0.0,1.0,69,0.00,,---,0.00,VWS V14.01,2013-01-22 00:08:00,
2013-01-21 19:14:00,24.9,16.8,29.87,WNW,282,0.0,1.0,71,0.00,,---,0.00,VWS V14.01,2013-01-22 00:14:00,
2013-01-21 19:19:00,24.9,16.8,29.87,WNW,282,0.0,1.0,71,0.00,,---,0.00,VWS V14.01,2013-01-22 00:19:00,
2013-01-21 19:24:00,24.8,16.4,29.88,WNW,282,0.0,1.0,70,0.00,,---,0.00,VWS V14.01,2013-01-22 00:24:00,
2013-01-21 19:29:00,24.8,16.4,29.88,NW,321,0.0,3.0,70,0.00,,---,0.00,VWS V14.01,2013-01-22 00:29:00,
2013-01-21 19:30:00,23.4,17.9,29.86,NNW,336,1.0,4.0,79,0.00,,---,0.00,VWS V14.01,2013-01-22 00:30:00,
2013-01-21 19:34:00,24.8,16.8,29.88,NNW,331,1.0,3.0,71,0.00,,---,0.00,VWS V14.01,2013-01-22 00:34:00,
2013-01-21 19:39:00,24.8,16.4,29.88,NW,323,2.0,4.0,70,0.00,,---,0.00,VWS V14.01,2013-01-22 00:39:00,
2013-01-21 19:44:00,24.7,17.0,29.88,NNW,334,0.0,5.0,72,0.00,,---,0.00,VWS V14.01,2013-01-22 00:44:00,
2013-01-21 19:49:00,24.6,17.2,29.88,NW,317,0.0,5.0,73,0.00,,---,0.00,VWS V14.01,2013-01-22 00:49:00,
2013-01-21 19:54:00,24.5,17.4,29.88,West,271,0.0,5.0,74,0.00,,---,0.00,VWS V14.01,2013-01-22 00:54:00,
2013-01-21 19:59:00,24.4,17.6,29.88,NNE,22,1.0,5.0,75,0.00,,---,0.00,VWS V14.01,2013-01-22 00:59:00,
2013-01-21 20:00:00,22.7,18.0,29.86,West,262,1.0,6.0,82,0.00,,---,0.00,VWS V14.01,2013-01-22 01:00:00,
2013-01-21 20:04:00,24.3,17.5,29.87,NNW,340,0.0,2.0,75,0.00,,---,0.00,VWS V14.01,2013-01-22 01:04:00,
2013-01-21 20:10:00,24.2,17.7,29.87,NNW,340,0.0,2.0,76,0.00,,---,0.00,VWS V14.01,2013-01-22 01:10:00,
2013-01-21 20:15:00,24.0,17.9,29.86,NW,320,0.0,2.0,77,0.00,,---,0.00,VWS V14.01,2013-01-22 01:15:00,
2013-01-21 20:20:00,23.8,17.7,29.86,NW,313,1.0,3.0,77,0.00,,---,0.00,VWS V14.01,2013-01-22 01:20:00,
2013-01-21 20:25:00,23.5,17.7,29.86,NW,315,0.0,4.0,78,0.00,,---,0.00,VWS V14.01,2013-01-22 01:25:00,
2013-01-21 20:30:00,23.4,17.9,29.86,NNW,336,0.0,4.0,79,0.00,,---,0.00,VWS V14.01,2013-01-22 01:30:00,
2013-01-21 20:35:00,23.2,17.7,29.86,NW,319,0.0,3.0,79,0.00,,---,0.00,VWS V14.01,2013-01-22 01:35:00,
2013-01-21 20:40:00,23.0,17.8,29.86,WSW,257,3.0,6.0,80,0.00,,---,0.00,VWS V14.01,2013-01-22 01:40:00,
2013-01-21 20:45:00,23.0,17.8,29.86,NW,313,0.0,6.0,80,0.00,,---,0.00,VWS V14.01,2013-01-22 01:45:00,
2013-01-21 20:50:00,22.9,18.0,29.86,West,280,2.0,6.0,81,0.00,,---,0.00,VWS V14.01,2013-01-22 01:50:00,
2013-01-21 20:55:00,22.8,17.9,29.86,WSW,255,0.0,6.0,81,0.00,,---,0.00,VWS V14.01,2013-01-22 01:55:00,
2013-01-21 21:00:00,22.7,18.0,29.85,West,262,2.0,3.0,82,0.00,,---,0.00,VWS V14.01,2013-01-22 02:00:00,
2013-01-21 21:05:00,22.6,17.9,29.84,NW,315,2.0,4.0,82,0.00,,---,0.00,VWS V14.01,2013-01-22 02:05:00,
2013-01-21 21:10:00,22.4,18.0,29.84,West,259,2.0,5.0,83,0.00,,---,0.00,VWS V14.01,2013-01-22 02:10:00,
2013-01-21 21:15:00,22.5,18.1,29.83,NNW,332,1.0,6.0,83,0.00,,---,0.00,VWS V14.01,2013-01-22 02:15:00,
2013-01-21 21:21:00,22.5,18.1,29.84,WSW,248,3.0,6.0,83,0.00,,---,0.00,VWS V14.01,2013-01-22 02:21:00,
2013-01-21 21:26:00,22.5,18.1,29.85,WNW,288,0.0,6.0,83,0.00,,---,0.00,VWS V14.01,2013-01-22 02:26:00,
2013-01-21 21:30:00,22.1,16.3,29.84,NNW,330,0.0,9.0,78,0.00,,---,0.00,VWS V14.01,2013-01-22 02:30:00,
2013-01-21 21:31:00,22.5,18.4,29.85,WSW,250,4.0,4.0,84,0.00,,---,0.00,VWS V14.01,2013-01-22 02:31:00,
2013-01-21 21:36:00,22.5,18.4,29.85,West,263,2.0,5.0,84,0.00,,---,0.00,VWS V14.01,2013-01-22 02:36:00,
2013-01-21 21:41:00,22.5,18.4,29.85,WNW,299,1.0,8.0,84,0.00,,---,0.00,VWS V14.01,2013-01-22 02:41:00,
2013-01-21 21:46:00,22.5,18.4,29.85,WNW,302,2.0,8.0,84,0.00,,---,0.00,VWS V14.01,2013-01-22 02:46:00,
2013-01-21 21:51:00,22.5,18.4,29.85,WNW,298,2.0,8.0,84,0.00,,---,0.00,VWS V14.01,2013-01-22 02:51:00,
2013-01-21 21:56:00,22.5,18.1,29.84,NW,323,3.0,8.0,83,0.00,,---,0.00,VWS V14.01,2013-01-22 02:56:00,
2013-01-21 22:00:00,21.9,13.0,29.83,NW,314,4.0,11.0,68,0.00,,---,0.00,VWS V14.01,2013-01-22 03:00:00,
2013-01-21 22:01:00,22.4,17.8,29.84,NW,323,3.0,5.0,82,0.00,,---,0.00,VWS V14.01,2013-01-22 03:01:00,
2013-01-21 22:06:00,22.4,17.5,29.83,WNW,286,3.0,6.0,81,0.00,,---,0.00,VWS V14.01,2013-01-22 03:06:00,
2013-01-21 22:12:00,22.4,17.2,29.83,WNW,298,3.0,6.0,80,0.00,,---,0.00,VWS V14.01,2013-01-22 03:12:00,
2013-01-21 22:17:00,22.4,16.9,29.83,WNW,290,2.0,6.0,79,0.00,,---,0.00,VWS V14.01,2013-01-22 03:17:00,
2013-01-21 22:22:00,22.2,16.7,29.84,NW,312,3.0,7.0,79,0.00,,---,0.00,VWS V14.01,2013-01-22 03:22:00,
2013-01-21 22:27:00,22.2,16.4,29.84,WSW,247,1.0,9.0,78,0.00,,---,0.00,VWS V14.01,2013-01-22 03:27:00,
2013-01-21 22:30:00,21.1,11.9,29.83,NW,322,5.0,15.0,67,0.00,,---,0.00,VWS V14.01,2013-01-22 03:30:00,
2013-01-21 22:32:00,22.1,16.3,29.84,NW,307,1.0,6.0,78,0.00,,---,0.00,VWS V14.01,2013-01-22 03:32:00,
2013-01-21 22:37:00,22.0,15.9,29.84,West,260,5.0,9.0,77,0.00,,---,0.00,VWS V14.01,2013-01-22 03:37:00,
2013-01-21 22:42:00,22.0,15.0,29.83,NW,319,10.0,10.0,74,0.00,,---,0.00,VWS V14.01,2013-01-22 03:42:00,
2013-01-21 22:47:00,22.1,13.8,29.83,West,273,4.0,11.0,70,0.00,,---,0.00,VWS V14.01,2013-01-22 03:47:00,
2013-01-21 22:52:00,22.1,13.2,29.84,WNW,302,9.0,11.0,68,0.00,,---,0.00,VWS V14.01,2013-01-22 03:52:00,
2013-01-21 22:57:00,22.0,13.1,29.83,NW,320,6.0,11.0,68,0.00,,---,0.00,VWS V14.01,2013-01-22 03:57:00,
2013-01-21 23:00:00,20.7,11.5,29.83,NW,309,0.0,12.0,67,0.00,,---,0.00,VWS V14.01,2013-01-22 04:00:00,
2013-01-21 23:03:00,21.8,12.2,29.83,NNW,336,6.0,9.0,66,0.00,,---,0.00,VWS V14.01,2013-01-22 04:03:00,
2013-01-21 23:08:00,21.7,12.1,29.83,NNW,331,5.0,10.0,66,0.00,,---,0.00,VWS V14.01,2013-01-22 04:08:00,
2013-01-21 23:13:00,21.6,12.0,29.83,West,277,5.0,13.0,66,0.00,,---,0.00,VWS V14.01,2013-01-22 04:13:00,
2013-01-21 23:18:00,21.5,11.6,29.83,NNW,344,9.0,13.0,65,0.00,,---,0.00,VWS V14.01,2013-01-22 04:18:00,
2013-01-21 23:23:00,21.4,11.8,29.83,NW,313,6.0,15.0,66,0.00,,---,0.00,VWS V14.01,2013-01-22 04:23:00,
2013-01-21 23:28:00,21.2,12.0,29.83,NW,321,2.0,15.0,67,0.00,,---,0.00,VWS V14.01,2013-01-22 04:28:00,
2013-01-21 23:30:00,20.2,10.0,29.83,WNW,291,6.0,13.0,64,0.00,,---,0.00,VWS V14.01,2013-01-22 04:30:00,
2013-01-21 23:33:00,21.1,11.9,29.84,NW,316,4.0,6.0,67,0.00,,---,0.00,VWS V14.01,2013-01-22 04:33:00,
2013-01-21 23:38:00,21.0,11.8,29.83,WNW,298,3.0,12.0,67,0.00,,---,0.00,VWS V14.01,2013-01-22 04:38:00,
2013-01-21 23:43:00,21.0,11.8,29.83,WNW,293,5.0,12.0,67,0.00,,---,0.00,VWS V14.01,2013-01-22 04:43:00,
2013-01-21 23:48:00,20.9,11.7,29.83,NNW,327,4.0,12.0,67,0.00,,---,0.00,VWS V14.01,2013-01-22 04:48:00,
2013-01-21 23:53:00,20.8,11.6,29.83,NNW,333,3.0,12.0,67,0.00,,---,0.00,VWS V14.01,2013-01-22 04:53:00,
2013-01-21 23:58:00,20.7,11.5,29.83,NNW,338,2.0,12.0,67,0.00,,---,0.00,VWS V14.01,2013-01-22 04:58:00,